Time,TemperatureF,DewpointF,PressureIn,WindDirection,WindDirectionDegrees,WindSpeedMPH,WindSpeedGustMPH,Humidity,HourlyPrecipIn,Conditions,Clouds,dailyrainin,SoftwareType,DateUTC
2013-01-25 00:00:00,51.8,50.1,30.28,West,262,0.0,0.0,94,0.00,,---,0.00,VWS V14.01,2013-01-25 05:00:00,
2013-01-25 00:01:00,51.7,50.0,30.28,West,262,0.0,0.0,94,0.00,,---,0.00,VWS V14.01,2013-01-25 05:01:00,
2013-01-25 00:03:00,51.6,49.9,30.28,West,261,0.0,0.0,94,0.00,,---,0.00,VWS V14.01,2013-01-25 05:03:00,
2013-01-25 00:04:00,51.6,49.9,30.28,West,262,0.0,0.0,94,0.00,,---,0.00,VWS V14.01,2013-01-25 05:04:00,
2013-01-25 00:09:00,51.5,49.8,30.28,West,262,0.0,0.0,94,0.00,,---,0.00,VWS V14.01,2013-01-25 05:09:00,
2013-01-25 00:14:00,51.4,49.7,30.28,West,262,0.0,0.0,94,0.00,,---,0.00,VWS V14.01,2013-01-25 05:14:00,
2013-01-25 00:19:00,51.3,49.6,30.28,West,262,0.0,0.0,94,0.00,,---,0.00,VWS V14.01,2013-01-25 05:19:00,
2013-01-25 00:24:00,51.3,49.9,30.28,West,262,0.0,0.0,95,0.00,,---,0.00,VWS V14.01,2013-01-25 05:24:00,
2013-01-25 00:29:00,51.1,49.4,30.28,West,262,0.0,0.0,94,0.00,,---,0.00,VWS V14.01,2013-01-25 05:29:00,
2013-01-25 00:34:00,51.0,49.6,30.28,West,262,0.0,0.0,95,0.00,,---,0.00,VWS V14.01,2013-01-25 05:34:00,
2013-01-25 00:40:00,50.9,49.5,30.28,West,262,0.0,0.0,95,0.00,,---,0.00,VWS V14.01,2013-01-25 05:40:00,
2013-01-25 00:45:00,50.8,49.4,30.28,West,262,0.0,0.0,95,0.00,,---,0.00,VWS V14.01,2013-01-25 05:45:00,
2013-01-25 00:50:00,50.6,49.2,30.29,West,262,0.0,0.0,95,0.00,,---,0.00,VWS V14.01,2013-01-25 05:50:00,
2013-01-25 00:55:00,50.7,49.3,30.29,West,262,0.0,0.0,95,0.00,,---,0.00,VWS V14.01,2013-01-25 05:55:00,
2013-01-25 01:00:00,50.6,49.2,30.29,West,262,0.0,0.0,95,0.00,,---,0.00,VWS V14.01,2013-01-25 06:00:00,
2013-01-25 01:05:00,50.5,49.1,30.29,West,262,0.0,0.0,95,0.00,,---,0.00,VWS V14.01,2013-01-25 06:05:00,
2013-01-25 01:10:00,50.4,49.0,30.29,West,262,0.0,0.0,95,0.00,,---,0.00,VWS V14.01,2013-01-25 06:10:00,
2013-01-25 01:15:00,50.2,48.8,30.29,West,262,0.0,0.0,95,0.00,,---,0.00,VWS V14.01,2013-01-25 06:15:00,
2013-01-25 01:20:00,50.1,49.0,30.29,West,262,0.0,0.0,96,0.00,,---,0.00,VWS V14.01,2013-01-25 06:20:00,
2013-01-25 01:25:00,50.1,49.0,30.30,West,262,0.0,0.0,96,0.00,,---,0.00,VWS V14.01,2013-01-25 06:25:00,
2013-01-25 01:30:00,50.0,48.9,30.29,West,262,0.0,0.0,96,0.00,,---,0.00,VWS V14.01,2013-01-25 06:30:00,
2013-01-25 01:35:00,50.0,48.9,30.29,West,262,0.0,0.0,96,0.00,,---,0.00,VWS V14.01,2013-01-25 06:35:00,
2013-01-25 01:40:00,50.0,48.9,30.29,West,262,0.0,0.0,96,0.00,,---,0.00,VWS V14.01,2013-01-25 06:40:00,
2013-01-25 01:45:00,50.1,49.0,30.28,West,262,0.0,0.0,96,0.00,,---,0.00,VWS V14.01,2013-01-25 06:45:00,
2013-01-25 01:50:00,50.0,48.9,30.28,West,260,0.0,0.0,96,0.00,,---,0.00,VWS V14.01,2013-01-25 06:50:00,
2013-01-25 01:55:00,49.9,48.8,30.28,West,262,0.0,0.0,96,0.00,,---,0.00,VWS V14.01,2013-01-25 06:55:00,
2013-01-25 02:00:00,49.8,48.7,30.28,West,260,0.0,0.0,96,0.00,,---,0.00,VWS V14.01,2013-01-25 07:00:00,
2013-01-25 02:06:00,49.7,48.6,30.28,West,260,0.0,0.0,96,0.00,,---,0.00,VWS V14.01,2013-01-25 07:06:00,
2013-01-25 02:11:00,49.7,48.6,30.27,West,260,0.0,0.0,96,0.00,,---,0.00,VWS V14.01,2013-01-25 07:11:00,
2013-01-25 02:16:00,49.6,48.5,30.27,West,259,0.0,0.0,96,0.00,,---,0.00,VWS V14.01,2013-01-25 07:16:00,
2013-01-25 02:21:00,49.5,48.4,30.27,West,259,0.0,0.0,96,0.00,,---,0.00,VWS V14.01,2013-01-25 07:21:00,
2013-01-25 02:26:00,49.4,48.3,30.27,West,259,0.0,0.0,96,0.00,,---,0.00,VWS V14.01,2013-01-25 07:26:00,
2013-01-25 02:31:00,49.4,48.3,30.27,West,259,0.0,0.0,96,0.00,,---,0.00,VWS V14.01,2013-01-25 07:31:00,
2013-01-25 02:36:00,49.2,48.1,30.26,West,260,0.0,0.0,96,0.00,,---,0.00,VWS V14.01,2013-01-25 07:36:00,
2013-01-25 02:41:00,49.0,47.9,30.26,West,260,0.0,0.0,96,0.00,,---,0.00,VWS V14.01,2013-01-25 07:41:00,
2013-01-25 02:46:00,48.9,47.8,30.27,West,260,0.0,0.0,96,0.00,,---,0.00,VWS V14.01,2013-01-25 07:46:00,
2013-01-25 02:51:00,48.9,48.1,30.27,West,259,0.0,0.0,97,0.00,,---,0.00,VWS V14.01,2013-01-25 07:51:00,
2013-01-25 02:56:00,49.0,48.2,30.26,West,260,0.0,0.0,97,0.00,,---,0.00,VWS V14.01,2013-01-25 07:56:00,
2013-01-25 03:01:00,48.9,48.1,30.26,West,259,0.0,0.0,97,0.00,,---,0.00,VWS V14.01,2013-01-25 08:01:00,
2013-01-25 03:06:00,48.8,47.7,30.26,West,260,0.0,0.0,96,0.00,,---,0.00,VWS V14.01,2013-01-25 08:06:00,
2013-01-25 03:11:00,48.7,47.6,30.26,West,259,0.0,0.0,96,0.00,,---,0.00,VWS V14.01,2013-01-25 08:11:00,
2013-01-25 03:16:00,48.5,47.4,30.26,West,260,0.0,0.0,96,0.00,,---,0.00,VWS V14.01,2013-01-25 08:16:00,
2013-01-25 03:21:00,48.4,47.6,30.25,West,260,0.0,0.0,97,0.00,,---,0.00,VWS V14.01,2013-01-25 08:21:00,
2013-01-25 03:26:00,48.3,47.5,30.25,West,260,0.0,0.0,97,0.00,,---,0.00,VWS V14.01,2013-01-25 08:26:00,
2013-01-25 03:31:00,48.3,47.5,30.25,West,260,0.0,0.0,97,0.00,,---,0.00,VWS V14.01,2013-01-25 08:31:00,
2013-01-25 03:36:00,48.2,47.4,30.25,West,260,0.0,0.0,97,0.00,,---,0.00,VWS V14.01,2013-01-25 08:36:00,
2013-01-25 03:42:00,48.0,46.9,30.26,West,262,0.0,1.0,96,0.00,,---,0.00,VWS V14.01,2013-01-25 08:42:00,
2013-01-25 03:47:00,47.9,47.1,30.26,West,262,0.0,1.0,97,0.00,,---,0.00,VWS V14.01,2013-01-25 08:47:00,
2013-01-25 03:52:00,47.9,47.1,30.26,West,262,0.0,1.0,97,0.00,,---,0.00,VWS V14.01,2013-01-25 08:52:00,
2013-01-25 03:57:00,47.9,47.1,30.26,West,262,0.0,1.0,97,0.00,,---,0.00,VWS V14.01,2013-01-25 08:57:00,
2013-01-25 04:02:00,47.8,47.0,30.26,West,262,0.0,0.0,97,0.00,,---,0.00,VWS V14.01,2013-01-25 09:02:00,
2013-01-25 04:07:00,47.8,47.0,30.26,West,262,0.0,0.0,97,0.00,,---,0.00,VWS V14.01,2013-01-25 09:07:00,
2013-01-25 04:12:00,47.9,47.1,30.26,West,262,0.0,1.0,97,0.00,,---,0.00,VWS V14.01,2013-01-25 09:12:00,
2013-01-25 04:17:00,48.5,48.0,30.26,West,262,0.0,1.0,98,0.00,,---,0.00,VWS V14.01,2013-01-25 09:17:00,
2013-01-25 04:22:00,49.1,48.6,30.26,West,262,0.0,1.0,98,0.00,,---,0.00,VWS V14.01,2013-01-25 09:22:00,
2013-01-25 04:27:00,49.4,48.9,30.26,West,262,0.0,1.0,98,0.00,,---,0.00,VWS V14.01,2013-01-25 09:27:00,
2013-01-25 04:32:00,49.3,48.5,30.26,West,262,0.0,0.0,97,0.00,,---,0.00,VWS V14.01,2013-01-25 09:32:00,
2013-01-25 04:37:00,49.6,49.1,30.26,West,262,0.0,1.0,98,0.00,,---,0.00,VWS V14.01,2013-01-25 09:37:00,
2013-01-25 04:43:00,49.6,49.1,30.26,West,262,0.0,1.0,98,0.00,,---,0.00,VWS V14.01,2013-01-25 09:43:00,
2013-01-25 04:48:00,49.7,49.2,30.25,West,262,0.0,1.0,98,0.00,,---,0.00,VWS V14.01,2013-01-25 09:48:00,
2013-01-25 04:53:00,49.9,49.4,30.25,West,262,0.0,1.0,98,0.00,,---,0.00,VWS V14.01,2013-01-25 09:53:00,
2013-01-25 04:58:00,50.0,49.5,30.25,West,263,0.0,1.0,98,0.00,,---,0.00,VWS V14.01,2013-01-25 09:58:00,
2013-01-25 05:03:00,50.1,49.6,30.25,West,263,0.0,0.0,98,0.00,,---,0.00,VWS V14.01,2013-01-25 10:03:00,
2013-01-25 05:08:00,50.0,49.2,30.25,West,263,0.0,0.0,97,0.00,,---,0.00,VWS V14.01,2013-01-25 10:08:00,
2013-01-25 05:13:00,50.1,49.6,30.26,West,263,0.0,0.0,98,0.00,,---,0.00,VWS V14.01,2013-01-25 10:13:00,
2013-01-25 05:18:00,50.3,49.8,30.26,West,264,0.0,1.0,98,0.00,,---,0.00,VWS V14.01,2013-01-25 10:18:00,
2013-01-25 05:23:00,50.4,49.9,30.26,WNW,298,0.0,1.0,98,0.00,,---,0.00,VWS V14.01,2013-01-25 10:23:00,
2013-01-25 05:28:00,50.4,49.6,30.26,WNW,298,0.0,1.0,97,0.00,,---,0.00,VWS V14.01,2013-01-25 10:28:00,
2013-01-25 05:33:00,50.7,50.2,30.26,WNW,298,0.0,0.0,98,0.00,,---,0.00,VWS V14.01,2013-01-25 10:33:00,
2013-01-25 05:38:00,50.7,49.9,30.26,WNW,297,0.0,0.0,97,0.00,,---,0.00,VWS V14.01,2013-01-25 10:38:00,
2013-01-25 05:43:00,50.5,49.7,30.26,WNW,298,0.0,0.0,97,0.00,,---,0.00,VWS V14.01,2013-01-25 10:43:00,
2013-01-25 05:48:00,50.4,49.6,30.27,WNW,298,0.0,0.0,97,0.00,,---,0.00,VWS V14.01,2013-01-25 10:48:00,
2013-01-25 05:53:00,50.2,49.4,30.27,WNW,298,0.0,0.0,97,0.00,,---,0.00,VWS V14.01,2013-01-25 10:53:00,
2013-01-25 05:58:00,50.0,49.2,30.27,WNW,298,0.0,0.0,97,0.00,,---,0.00,VWS V14.01,2013-01-25 10:58:00,
2013-01-25 06:03:00,49.8,49.0,30.27,WNW,298,0.0,0.0,97,0.00,,---,0.00,VWS V14.01,2013-01-25 11:03:00,
2013-01-25 06:08:00,49.6,48.8,30.27,WNW,298,0.0,0.0,97,0.00,,---,0.00,VWS V14.01,2013-01-25 11:08:00,
2013-01-25 06:14:00,49.5,48.7,30.27,WNW,298,0.0,0.0,97,0.00,,---,0.00,VWS V14.01,2013-01-25 11:14:00,
2013-01-25 06:19:00,49.6,49.1,30.27,WNW,298,0.0,0.0,98,0.00,,---,0.00,VWS V14.01,2013-01-25 11:19:00,
2013-01-25 06:24:00,49.9,49.4,30.28,SSW,211,0.0,1.0,98,0.00,,---,0.00,VWS V14.01,2013-01-25 11:24:00,
2013-01-25 06:29:00,50.1,49.6,30.28,SSW,211,0.0,1.0,98,0.00,,---,0.00,VWS V14.01,2013-01-25 11:29:00,
2013-01-25 06:34:00,50.1,49.6,30.28,SW,217,0.0,0.0,98,0.00,,---,0.00,VWS V14.01,2013-01-25 11:34:00,
2013-01-25 06:39:00,50.2,49.7,30.28,SW,217,0.0,0.0,98,0.00,,---,0.00,VWS V14.01,2013-01-25 11:39:00,
2013-01-25 06:44:00,50.3,49.8,30.28,SW,216,0.0,0.0,98,0.00,,---,0.00,VWS V14.01,2013-01-25 11:44:00,
2013-01-25 06:49:00,50.3,49.8,30.29,SW,217,0.0,0.0,98,0.00,,---,0.00,VWS V14.01,2013-01-25 11:49:00,
2013-01-25 06:54:00,50.4,49.9,30.28,SW,216,0.0,0.0,98,0.00,,---,0.00,VWS V14.01,2013-01-25 11:54:00,
2013-01-25 06:59:00,50.8,50.3,30.29,SW,217,0.0,0.0,98,0.00,,---,0.00,VWS V14.01,2013-01-25 11:59:00,
2013-01-25 07:04:00,50.9,50.4,30.29,SW,217,0.0,0.0,98,0.00,,---,0.00,VWS V14.01,2013-01-25 12:04:00,
2013-01-25 07:09:00,51.0,50.5,30.29,SW,217,0.0,0.0,98,0.00,,---,0.00,VWS V14.01,2013-01-25 12:09:00,
2013-01-25 07:14:00,51.1,50.6,30.29,SW,217,0.0,0.0,98,0.00,,---,0.00,VWS V14.01,2013-01-25 12:14:00,
2013-01-25 07:19:00,51.2,50.7,30.29,SW,217,0.0,1.0,98,0.00,,---,0.00,VWS V14.01,2013-01-25 12:19:00,
2013-01-25 07:25:00,51.4,50.9,30.29,SW,217,0.0,1.0,98,0.00,,---,0.00,VWS V14.01,2013-01-25 12:25:00,
2013-01-25 07:30:00,51.4,50.9,30.29,SW,215,0.0,1.0,98,0.00,,---,0.00,VWS V14.01,2013-01-25 12:30:00,
2013-01-25 07:35:00,51.5,51.0,30.29,SW,217,0.0,0.0,98,0.00,,---,0.00,VWS V14.01,2013-01-25 12:35:00,
2013-01-25 07:40:00,51.6,51.1,30.29,SW,217,0.0,0.0,98,0.00,,---,0.00,VWS V14.01,2013-01-25 12:40:00,
2013-01-25 07:45:00,51.7,51.2,30.29,SW,217,0.0,0.0,98,0.00,,---,0.00,VWS V14.01,2013-01-25 12:45:00,
2013-01-25 07:50:00,51.9,51.4,30.29,SW,217,0.0,0.0,98,0.00,,---,0.00,VWS V14.01,2013-01-25 12:50:00,
2013-01-25 07:55:00,52.1,51.5,30.29,SW,217,0.0,0.0,98,0.00,,---,0.00,VWS V14.01,2013-01-25 12:55:00,
2013-01-25 08:00:00,52.5,52.0,30.29,SW,215,0.0,1.0,98,0.00,,---,0.00,VWS V14.01,2013-01-25 13:00:00,
2013-01-25 08:05:00,52.8,52.2,30.29,SW,215,0.0,0.0,98,0.00,,---,0.00,VWS V14.01,2013-01-25 13:05:00,
2013-01-25 08:11:00,53.0,52.5,30.29,SW,215,0.0,0.0,98,0.00,,---,0.00,VWS V14.01,2013-01-25 13:11:00,
2013-01-25 08:16:00,53.2,52.7,30.29,NW,304,0.0,1.0,98,0.00,,---,0.00,VWS V14.01,2013-01-25 13:16:00,
2013-01-25 08:21:00,53.6,53.0,30.29,WNW,303,0.0,1.0,98,0.00,,---,0.00,VWS V14.01,2013-01-25 13:21:00,
2013-01-25 08:26:00,53.9,53.3,30.30,NW,323,0.0,1.0,98,0.00,,---,0.00,VWS V14.01,2013-01-25 13:26:00,
2013-01-25 08:31:00,54.1,53.5,30.30,NW,321,0.0,1.0,98,0.00,,---,0.00,VWS V14.01,2013-01-25 13:31:00,
2013-01-25 08:36:00,54.2,53.7,30.30,WNW,300,0.0,1.0,98,0.00,,---,0.00,VWS V14.01,2013-01-25 13:36:00,
2013-01-25 08:41:00,54.5,54.0,30.30,WNW,300,0.0,1.0,98,0.00,,---,0.00,VWS V14.01,2013-01-25 13:41:00,
2013-01-25 08:46:00,54.6,54.0,30.30,North,360,0.0,1.0,98,0.00,,---,0.00,VWS V14.01,2013-01-25 13:46:00,
2013-01-25 08:51:00,54.7,53.9,30.30,NW,314,0.0,1.0,97,0.00,,---,0.00,VWS V14.01,2013-01-25 13:51:00,
2013-01-25 08:56:00,54.9,54.1,30.30,NNW,328,0.0,1.0,97,0.00,,---,0.00,VWS V14.01,2013-01-25 13:56:00,
2013-01-25 09:01:00,55.3,54.5,30.30,NNW,335,0.0,1.0,97,0.00,,---,0.00,VWS V14.01,2013-01-25 14:01:00,
2013-01-25 09:06:00,55.6,54.8,30.30,NW,304,0.0,1.0,97,0.00,,---,0.00,VWS V14.01,2013-01-25 14:06:00,
2013-01-25 09:12:00,56.0,55.2,30.31,NW,323,0.0,1.0,97,0.00,,---,0.00,VWS V14.01,2013-01-25 14:12:00,
2013-01-25 09:17:00,56.5,55.4,30.31,NW,321,0.0,1.0,96,0.00,,---,0.00,VWS V14.01,2013-01-25 14:17:00,
2013-01-25 09:22:00,56.8,55.7,30.31,NW,321,0.0,1.0,96,0.00,,---,0.00,VWS V14.01,2013-01-25 14:22:00,
2013-01-25 09:27:00,57.2,55.8,30.31,WNW,291,0.0,2.0,95,0.00,,---,0.00,VWS V14.01,2013-01-25 14:27:00,
2013-01-25 09:32:00,57.6,56.2,30.31,WNW,292,0.0,0.0,95,0.00,,---,0.00,VWS V14.01,2013-01-25 14:32:00,
2013-01-25 09:37:00,58.1,56.4,30.31,WNW,293,0.0,1.0,94,0.00,,---,0.00,VWS V14.01,2013-01-25 14:37:00,
2013-01-25 09:42:00,58.5,56.8,30.31,ENE,67,0.0,1.0,94,0.00,,---,0.00,VWS V14.01,2013-01-25 14:42:00,
2013-01-25 09:47:00,59.0,57.0,30.31,NE,39,0.0,1.0,93,0.00,,---,0.00,VWS V14.01,2013-01-25 14:47:00,
2013-01-25 09:52:00,59.5,57.2,30.31,NNW,345,0.0,1.0,92,0.00,,---,0.00,VWS V14.01,2013-01-25 14:52:00,
2013-01-25 09:57:00,59.8,56.9,30.31,NW,321,0.0,2.0,90,0.00,,---,0.00,VWS V14.01,2013-01-25 14:57:00,
2013-01-25 10:02:00,60.1,57.2,30.31,NNW,332,0.0,1.0,90,0.00,,---,0.00,VWS V14.01,2013-01-25 15:02:00,
2013-01-25 10:07:00,60.5,57.6,30.32,NW,322,0.0,1.0,90,0.00,,---,0.00,VWS V14.01,2013-01-25 15:07:00,
2013-01-25 10:12:00,60.9,57.6,30.32,North,354,1.0,1.0,89,0.00,,---,0.00,VWS V14.01,2013-01-25 15:12:00,
2013-01-25 10:17:00,61.1,57.5,30.32,NW,309,0.0,3.0,88,0.00,,---,0.00,VWS V14.01,2013-01-25 15:17:00,
2013-01-25 10:22:00,61.6,58.0,30.32,SW,235,1.0,3.0,88,0.00,,---,0.00,VWS V14.01,2013-01-25 15:22:00,
2013-01-25 10:27:00,62.3,58.4,30.31,West,271,0.0,3.0,87,0.00,,---,0.00,VWS V14.01,2013-01-25 15:27:00,
2013-01-25 10:32:00,63.1,58.8,30.31,WSW,245,0.0,1.0,86,0.00,,---,0.00,VWS V14.01,2013-01-25 15:32:00,
2013-01-25 10:37:00,64.1,59.2,30.31,West,273,1.0,1.0,84,0.00,,---,0.00,VWS V14.01,2013-01-25 15:37:00,
2013-01-25 10:43:00,65.0,59.0,30.31,WSW,255,1.0,2.0,81,0.00,,---,0.00,VWS V14.01,2013-01-25 15:43:00,
2013-01-25 10:48:00,66.0,59.0,30.30,NNW,347,0.0,2.0,78,0.00,,---,0.00,VWS V14.01,2013-01-25 15:48:00,
2013-01-25 10:53:00,67.1,59.7,30.30,SW,235,0.0,4.0,77,0.00,,---,0.00,VWS V14.01,2013-01-25 15:53:00,
2013-01-25 10:58:00,68.1,59.1,30.30,WNW,300,0.0,4.0,73,0.00,,---,0.00,VWS V14.01,2013-01-25 15:58:00,
2013-01-25 11:03:00,69.0,59.6,30.30,WNW,282,0.0,1.0,72,0.00,,---,0.00,VWS V14.01,2013-01-25 16:03:00,
2013-01-25 11:08:00,69.7,59.1,30.30,ENE,63,0.0,2.0,69,0.00,,---,0.00,VWS V14.01,2013-01-25 16:08:00,
2013-01-25 11:13:00,70.0,57.7,30.29,North,8,0.0,2.0,65,0.00,,---,0.00,VWS V14.01,2013-01-25 16:13:00,
2013-01-25 11:18:00,70.2,57.9,30.29,ENE,65,2.0,2.0,65,0.00,,---,0.00,VWS V14.01,2013-01-25 16:18:00,
2013-01-25 11:23:00,70.6,57.8,30.29,North,4,0.0,2.0,64,0.00,,---,0.00,VWS V14.01,2013-01-25 16:23:00,
2013-01-25 11:28:00,71.0,56.4,30.29,NE,55,1.0,3.0,60,0.00,,---,0.00,VWS V14.01,2013-01-25 16:28:00,
2013-01-25 11:33:00,71.1,55.6,30.29,NW,319,1.0,2.0,58,0.00,,---,0.00,VWS V14.01,2013-01-25 16:33:00,
2013-01-25 11:38:00,71.2,55.2,30.28,NNW,329,1.0,3.0,57,0.00,,---,0.00,VWS V14.01,2013-01-25 16:38:00,
2013-01-25 11:43:00,71.6,56.1,30.28,West,262,0.0,4.0,58,0.00,,---,0.00,VWS V14.01,2013-01-25 16:43:00,
2013-01-25 11:48:00,72.5,55.9,30.28,North,352,0.0,4.0,56,0.00,,---,0.00,VWS V14.01,2013-01-25 16:48:00,
2013-01-25 11:53:00,72.9,55.3,30.28,NW,325,2.0,4.0,54,0.00,,---,0.00,VWS V14.01,2013-01-25 16:53:00,
2013-01-25 11:58:00,72.7,55.1,30.27,North,357,0.0,4.0,54,0.00,,---,0.00,VWS V14.01,2013-01-25 16:58:00,
2013-01-25 12:03:00,72.9,55.3,30.27,NNW,332,2.0,2.0,54,0.00,,---,0.00,VWS V14.01,2013-01-25 17:03:00,
2013-01-25 12:09:00,73.2,51.8,30.27,ENE,64,2.0,3.0,47,0.00,,---,0.00,VWS V14.01,2013-01-25 17:09:00,
2013-01-25 12:14:00,73.1,52.8,30.26,NE,51,1.0,7.0,49,0.00,,---,0.00,VWS V14.01,2013-01-25 17:14:00,
2013-01-25 12:19:00,73.2,53.5,30.26,NNW,339,2.0,7.0,50,0.00,,---,0.00,VWS V14.01,2013-01-25 17:19:00,
2013-01-25 12:24:00,73.2,54.0,30.26,NW,311,0.0,7.0,51,0.00,,---,0.00,VWS V14.01,2013-01-25 17:24:00,
2013-01-25 12:29:00,73.9,53.6,30.25,West,277,1.0,7.0,49,0.00,,---,0.00,VWS V14.01,2013-01-25 17:29:00,
2013-01-25 12:34:00,74.2,52.7,30.25,NNE,20,1.0,1.0,47,0.00,,---,0.00,VWS V14.01,2013-01-25 17:34:00,
2013-01-25 12:39:00,74.0,54.2,30.25,NNW,340,1.0,2.0,50,0.00,,---,0.00,VWS V14.01,2013-01-25 17:39:00,
2013-01-25 12:44:00,74.1,53.2,30.25,WNW,290,1.0,4.0,48,0.00,,---,0.00,VWS V14.01,2013-01-25 17:44:00,
2013-01-25 12:49:00,74.2,53.3,30.24,WNW,300,2.0,4.0,48,0.00,,---,0.00,VWS V14.01,2013-01-25 17:49:00,
2013-01-25 12:54:00,74.4,52.9,30.24,ENE,61,0.0,4.0,47,0.00,,---,0.00,VWS V14.01,2013-01-25 17:54:00,
2013-01-25 12:59:00,74.0,51.9,30.24,ENE,68,1.0,5.0,46,0.00,,---,0.00,VWS V14.01,2013-01-25 17:59:00,
2013-01-25 13:04:00,74.0,52.5,30.23,SE,126,0.0,1.0,47,0.00,,---,0.00,VWS V14.01,2013-01-25 18:04:00,
2013-01-25 13:09:00,74.3,52.8,30.23,NE,53,1.0,4.0,47,0.00,,---,0.00,VWS V14.01,2013-01-25 18:09:00,
2013-01-25 13:14:00,74.2,53.3,30.23,WNW,284,1.0,4.0,48,0.00,,---,0.00,VWS V14.01,2013-01-25 18:14:00,
2013-01-25 13:19:00,74.9,53.3,30.22,SW,222,0.0,4.0,47,0.00,,---,0.00,VWS V14.01,2013-01-25 18:19:00,
2013-01-25 13:24:00,75.2,53.6,30.22,SSE,150,0.0,4.0,47,0.00,,---,0.00,VWS V14.01,2013-01-25 18:24:00,
2013-01-25 13:29:00,76.0,53.2,30.22,NW,307,0.0,4.0,45,0.00,,---,0.00,VWS V14.01,2013-01-25 18:29:00,
2013-01-25 13:35:00,75.7,53.5,30.22,SSW,204,1.0,4.0,46,0.00,,---,0.00,VWS V14.01,2013-01-25 18:35:00,
2013-01-25 13:40:00,75.5,53.3,30.22,SE,143,1.0,6.0,46,0.00,,---,0.00,VWS V14.01,2013-01-25 18:40:00,
2013-01-25 13:45:00,76.0,52.5,30.21,ESE,120,0.0,6.0,44,0.00,,---,0.00,VWS V14.01,2013-01-25 18:45:00,
2013-01-25 13:50:00,75.8,53.0,30.21,ENE,63,3.0,6.0,45,0.00,,---,0.00,VWS V14.01,2013-01-25 18:50:00,
2013-01-25 13:55:00,75.2,53.0,30.21,ESE,115,0.0,6.0,46,0.00,,---,0.00,VWS V14.01,2013-01-25 18:55:00,
2013-01-25 14:00:00,75.2,53.0,30.21,NNE,20,2.0,6.0,46,0.00,,---,0.00,VWS V14.01,2013-01-25 19:00:00,
2013-01-25 14:05:00,75.7,54.1,30.21,North,11,0.0,2.0,47,0.00,,---,0.00,VWS V14.01,2013-01-25 19:05:00,
2013-01-25 14:10:00,76.1,54.4,30.21,ENE,65,4.0,4.0,47,0.00,,---,0.00,VWS V14.01,2013-01-25 19:10:00,
2013-01-25 14:15:00,75.8,53.6,30.21,NW,307,0.0,4.0,46,0.00,,---,0.00,VWS V14.01,2013-01-25 19:15:00,
2013-01-25 14:20:00,76.2,52.7,30.20,SSE,162,0.0,5.0,44,0.00,,---,0.00,VWS V14.01,2013-01-25 19:20:00,
2013-01-25 14:25:00,76.4,52.9,30.20,NW,311,1.0,5.0,44,0.00,,---,0.00,VWS V14.01,2013-01-25 19:25:00,
2013-01-25 14:30:00,76.1,52.6,30.20,SW,217,1.0,5.0,44,0.00,,---,0.00,VWS V14.01,2013-01-25 19:30:00,
2013-01-25 14:35:00,76.3,53.4,30.20,SE,128,2.0,3.0,45,0.00,,---,0.00,VWS V14.01,2013-01-25 19:35:00,
2013-01-25 14:40:00,76.5,53.0,30.20,SSE,148,0.0,3.0,44,0.00,,---,0.00,VWS V14.01,2013-01-25 19:40:00,
2013-01-25 14:45:00,76.6,53.1,30.20,NE,44,1.0,3.0,44,0.00,,---,0.00,VWS V14.01,2013-01-25 19:45:00,
2013-01-25 14:50:00,75.3,54.3,30.20,SSE,159,0.0,8.0,48,0.00,,---,0.00,VWS V14.01,2013-01-25 19:50:00,
2013-01-25 14:55:00,74.7,54.8,30.20,SE,126,1.0,8.0,50,0.00,,---,0.00,VWS V14.01,2013-01-25 19:55:00,
2013-01-25 15:01:00,75.3,54.3,30.20,SSE,158,1.0,8.0,48,0.00,,---,0.00,VWS V14.01,2013-01-25 20:01:00,
2013-01-25 15:06:00,75.4,54.4,30.19,NE,49,3.0,4.0,48,0.00,,---,0.00,VWS V14.01,2013-01-25 20:06:00,
2013-01-25 15:11:00,75.0,54.0,30.19,East,86,5.0,6.0,48,0.00,,---,0.00,VWS V14.01,2013-01-25 20:11:00,
2013-01-25 15:16:00,74.4,53.5,30.19,ENE,61,5.0,8.0,48,0.00,,---,0.00,VWS V14.01,2013-01-25 20:16:00,
2013-01-25 15:21:00,73.9,54.1,30.19,NE,54,0.0,8.0,50,0.00,,---,0.00,VWS V14.01,2013-01-25 20:21:00,
2013-01-25 15:26:00,74.2,54.4,30.19,ENE,59,4.0,8.0,50,0.00,,---,0.00,VWS V14.01,2013-01-25 20:26:00,
2013-01-25 15:31:00,73.9,54.7,30.19,East,79,2.0,8.0,51,0.00,,---,0.00,VWS V14.01,2013-01-25 20:31:00,
2013-01-25 15:36:00,73.5,53.7,30.19,ENE,58,2.0,8.0,50,0.00,,---,0.00,VWS V14.01,2013-01-25 20:36:00,
2013-01-25 15:41:00,73.1,53.9,30.18,NNE,16,2.0,9.0,51,0.00,,---,0.00,VWS V14.01,2013-01-25 20:41:00,
2013-01-25 15:46:00,73.0,53.8,30.18,SE,129,1.0,9.0,51,0.00,,---,0.00,VWS V14.01,2013-01-25 20:46:00,
2013-01-25 15:52:00,73.1,53.9,30.18,ENE,58,3.0,9.0,51,0.00,,---,0.00,VWS V14.01,2013-01-25 20:52:00,
2013-01-25 15:57:00,73.1,54.5,30.18,East,81,1.0,9.0,52,0.00,,---,0.00,VWS V14.01,2013-01-25 20:57:00,
2013-01-25 16:02:00,73.1,53.9,30.18,ENE,72,3.0,3.0,51,0.00,,---,0.00,VWS V14.01,2013-01-25 21:02:00,
2013-01-25 16:07:00,73.2,54.0,30.18,ENE,72,2.0,5.0,51,0.00,,---,0.00,VWS V14.01,2013-01-25 21:07:00,
2013-01-25 16:12:00,73.1,55.0,30.18,NE,53,2.0,5.0,53,0.00,,---,0.00,VWS V14.01,2013-01-25 21:12:00,
2013-01-25 16:17:00,73.1,55.0,30.18,ENE,64,5.0,5.0,53,0.00,,---,0.00,VWS V14.01,2013-01-25 21:17:00,
2013-01-25 16:22:00,72.6,54.0,30.18,NNE,26,1.0,6.0,52,0.00,,---,0.00,VWS V14.01,2013-01-25 21:22:00,
2013-01-25 16:27:00,72.4,53.8,30.19,East,98,2.0,6.0,52,0.00,,---,0.00,VWS V14.01,2013-01-25 21:27:00,
2013-01-25 16:32:00,72.2,54.1,30.19,ENE,72,3.0,4.0,53,0.00,,---,0.00,VWS V14.01,2013-01-25 21:32:00,
2013-01-25 16:37:00,72.1,54.6,30.19,NE,46,1.0,5.0,54,0.00,,---,0.00,VWS V14.01,2013-01-25 21:37:00,
2013-01-25 16:42:00,72.0,54.0,30.18,NNE,33,1.0,5.0,53,0.00,,---,0.00,VWS V14.01,2013-01-25 21:42:00,
2013-01-25 16:47:00,72.0,54.5,30.19,NE,51,1.0,5.0,54,0.00,,---,0.00,VWS V14.01,2013-01-25 21:47:00,
2013-01-25 16:52:00,71.6,54.1,30.19,ENE,63,2.0,5.0,54,0.00,,---,0.00,VWS V14.01,2013-01-25 21:52:00,
2013-01-25 16:58:00,71.4,54.9,30.18,ENE,65,3.0,5.0,56,0.00,,---,0.00,VWS V14.01,2013-01-25 21:58:00,
2013-01-25 17:03:00,70.9,54.9,30.18,ENE,63,3.0,3.0,57,0.00,,---,0.00,VWS V14.01,2013-01-25 22:03:00,
2013-01-25 17:08:00,70.6,55.1,30.18,East,94,1.0,3.0,58,0.00,,---,0.00,VWS V14.01,2013-01-25 22:08:00,
2013-01-25 17:13:00,70.3,55.3,30.18,ENE,68,0.0,3.0,59,0.00,,---,0.00,VWS V14.01,2013-01-25 22:13:00,
2013-01-25 17:18:00,70.0,55.0,30.18,ENE,67,0.0,3.0,59,0.00,,---,0.00,VWS V14.01,2013-01-25 22:18:00,
2013-01-25 17:23:00,69.7,55.2,30.18,ENE,72,0.0,3.0,60,0.00,,---,0.00,VWS V14.01,2013-01-25 22:23:00,
2013-01-25 17:28:00,69.3,55.7,30.19,East,100,0.0,3.0,62,0.00,,---,0.00,VWS V14.01,2013-01-25 22:28:00,
2013-01-25 17:33:00,69.0,55.9,30.19,East,80,1.0,2.0,63,0.00,,---,0.00,VWS V14.01,2013-01-25 22:33:00,
2013-01-25 17:38:00,68.6,55.5,30.19,ENE,70,1.0,3.0,63,0.00,,---,0.00,VWS V14.01,2013-01-25 22:38:00,
2013-01-25 17:44:00,68.2,55.6,30.20,ENE,70,0.0,3.0,64,0.00,,---,0.00,VWS V14.01,2013-01-25 22:44:00,
2013-01-25 17:49:00,67.8,56.0,30.20,NE,54,0.0,3.0,66,0.00,,---,0.00,VWS V14.01,2013-01-25 22:49:00,
2013-01-25 17:54:00,67.4,56.1,30.20,NE,54,0.0,3.0,67,0.00,,---,0.00,VWS V14.01,2013-01-25 22:54:00,
2013-01-25 17:59:00,67.0,56.1,30.20,NE,54,0.0,3.0,68,0.00,,---,0.00,VWS V14.01,2013-01-25 22:59:00,
2013-01-25 18:04:00,66.6,56.1,30.20,NE,54,0.0,0.0,69,0.00,,---,0.00,VWS V14.01,2013-01-25 23:04:00,
2013-01-25 18:09:00,66.1,56.0,30.20,NE,54,0.0,0.0,70,0.00,,---,0.00,VWS V14.01,2013-01-25 23:09:00,
2013-01-25 18:14:00,65.5,55.9,30.20,NE,54,0.0,0.0,71,0.00,,---,0.00,VWS V14.01,2013-01-25 23:14:00,
2013-01-25 18:19:00,65.0,55.8,30.20,NE,54,0.0,0.0,72,0.00,,---,0.00,VWS V14.01,2013-01-25 23:19:00,
2013-01-25 18:24:00,64.5,55.7,30.20,NE,54,0.0,0.0,73,0.00,,---,0.00,VWS V14.01,2013-01-25 23:24:00,
2013-01-25 18:29:00,64.0,55.6,30.20,NE,54,0.0,0.0,74,0.00,,---,0.00,VWS V14.01,2013-01-25 23:29:00,
2013-01-25 18:34:00,63.5,55.4,30.20,NE,54,0.0,0.0,75,0.00,,---,0.00,VWS V14.01,2013-01-25 23:34:00,
2013-01-25 18:40:00,63.0,55.3,30.21,NE,54,0.0,0.0,76,0.00,,---,0.00,VWS V14.01,2013-01-25 23:40:00,
2013-01-25 18:45:00,62.6,55.3,30.21,NE,54,0.0,0.0,77,0.00,,---,0.00,VWS V14.01,2013-01-25 23:45:00,
2013-01-25 18:50:00,62.2,55.3,30.21,NE,54,0.0,0.0,78,0.00,,---,0.00,VWS V14.01,2013-01-25 23:50:00,
2013-01-25 18:55:00,61.8,55.2,30.21,NE,54,0.0,0.0,79,0.00,,---,0.00,VWS V14.01,2013-01-25 23:55:00,
2013-01-25 19:00:00,61.4,54.8,30.21,NE,54,0.0,0.0,79,0.00,,---,0.00,VWS V14.01,2013-01-26 00:00:00,
2013-01-25 19:05:00,61.1,55.2,30.21,NE,54,0.0,0.0,81,0.00,,---,0.00,VWS V14.01,2013-01-26 00:05:00,
2013-01-25 19:10:00,60.8,55.6,30.21,NE,54,0.0,0.0,83,0.00,,---,0.00,VWS V14.01,2013-01-26 00:10:00,
2013-01-25 19:15:00,60.5,55.3,30.21,NE,54,0.0,0.0,83,0.00,,---,0.00,VWS V14.01,2013-01-26 00:15:00,
2013-01-25 19:20:00,60.1,54.9,30.21,NE,54,0.0,0.0,83,0.00,,---,0.00,VWS V14.01,2013-01-26 00:20:00,
2013-01-25 19:25:00,60.0,55.5,30.22,NE,54,0.0,0.0,85,0.00,,---,0.00,VWS V14.01,2013-01-26 00:25:00,
2013-01-25 19:31:00,59.8,55.0,30.22,NE,54,0.0,0.0,84,0.00,,---,0.00,VWS V14.01,2013-01-26 00:31:00,
2013-01-25 19:36:00,59.6,55.1,30.22,NE,54,0.0,0.0,85,0.00,,---,0.00,VWS V14.01,2013-01-26 00:36:00,
2013-01-25 19:41:00,59.3,54.8,30.22,NE,54,0.0,0.0,85,0.00,,---,0.00,VWS V14.01,2013-01-26 00:41:00,
2013-01-25 19:46:00,59.0,54.5,30.22,NE,54,0.0,0.0,85,0.00,,---,0.00,VWS V14.01,2013-01-26 00:46:00,
2013-01-25 19:51:00,58.7,54.8,30.22,NE,54,0.0,0.0,87,0.00,,---,0.00,VWS V14.01,2013-01-26 00:51:00,
2013-01-25 19:56:00,58.7,54.8,30.22,NE,54,0.0,0.0,87,0.00,,---,0.00,VWS V14.01,2013-01-26 00:56:00,
2013-01-25 20:01:00,58.6,55.1,30.22,NE,54,0.0,0.0,88,0.00,,---,0.00,VWS V14.01,2013-01-26 01:01:00,
2013-01-25 20:06:00,58.4,54.9,30.22,NE,54,0.0,0.0,88,0.00,,---,0.00,VWS V14.01,2013-01-26 01:06:00,
2013-01-25 20:11:00,58.3,54.8,30.21,NE,54,0.0,0.0,88,0.00,,---,0.00,VWS V14.01,2013-01-26 01:11:00,
2013-01-25 20:16:00,58.1,54.6,30.21,NE,53,0.0,0.0,88,0.00,,---,0.00,VWS V14.01,2013-01-26 01:16:00,
2013-01-25 20:21:00,57.8,54.6,30.21,NE,54,0.0,0.0,89,0.00,,---,0.00,VWS V14.01,2013-01-26 01:21:00,
2013-01-25 20:26:00,57.7,54.5,30.21,NE,54,0.0,0.0,89,0.00,,---,0.00,VWS V14.01,2013-01-26 01:26:00,
2013-01-25 20:31:00,57.5,54.6,30.21,NE,54,0.0,0.0,90,0.00,,---,0.00,VWS V14.01,2013-01-26 01:31:00,
2013-01-25 20:37:00,57.4,54.5,30.22,NE,54,0.0,0.0,90,0.00,,---,0.00,VWS V14.01,2013-01-26 01:37:00,
2013-01-25 20:42:00,57.2,54.3,30.22,NE,53,0.0,0.0,90,0.00,,---,0.00,VWS V14.01,2013-01-26 01:42:00,
2013-01-25 20:47:00,57.0,54.4,30.22,NE,54,0.0,0.0,91,0.00,,---,0.00,VWS V14.01,2013-01-26 01:47:00,
2013-01-25 20:52:00,56.8,54.2,30.22,NE,54,0.0,0.0,91,0.00,,---,0.00,VWS V14.01,2013-01-26 01:52:00,
2013-01-25 20:57:00,56.7,54.1,30.22,NE,54,0.0,0.0,91,0.00,,---,0.00,VWS V14.01,2013-01-26 01:57:00,
2013-01-25 21:02:00,56.6,54.3,30.22,NE,54,0.0,0.0,92,0.00,,---,0.00,VWS V14.01,2013-01-26 02:02:00,
2013-01-25 21:07:00,56.5,54.2,30.22,NE,54,0.0,0.0,92,0.00,,---,0.00,VWS V14.01,2013-01-26 02:07:00,
2013-01-25 21:12:00,56.4,54.1,30.22,NE,54,0.0,0.0,92,0.00,,---,0.00,VWS V14.01,2013-01-26 02:12:00,
2013-01-25 21:17:00,56.2,53.9,30.22,NE,54,0.0,0.0,92,0.00,,---,0.00,VWS V14.01,2013-01-26 02:17:00,
2013-01-25 21:22:00,56.0,53.7,30.22,NE,54,0.0,0.0,92,0.00,,---,0.00,VWS V14.01,2013-01-26 02:22:00,
2013-01-25 21:27:00,55.7,53.4,30.22,NE,54,0.0,0.0,92,0.00,,---,0.00,VWS V14.01,2013-01-26 02:27:00,
2013-01-25 21:32:00,55.5,53.2,30.22,NE,54,0.0,0.0,92,0.00,,---,0.00,VWS V14.01,2013-01-26 02:32:00,
2013-01-25 21:37:00,55.3,53.3,30.22,NE,54,0.0,0.0,93,0.00,,---,0.00,VWS V14.01,2013-01-26 02:37:00,
2013-01-25 21:42:00,55.2,53.2,30.22,NE,54,0.0,0.0,93,0.00,,---,0.00,VWS V14.01,2013-01-26 02:42:00,
2013-01-25 21:47:00,55.1,53.1,30.21,NE,54,0.0,0.0,93,0.00,,---,0.00,VWS V14.01,2013-01-26 02:47:00,
2013-01-25 21:53:00,55.0,53.0,30.21,NE,54,0.0,0.0,93,0.00,,---,0.00,VWS V14.01,2013-01-26 02:53:00,
2013-01-25 21:58:00,54.9,53.2,30.21,NE,54,0.0,0.0,94,0.00,,---,0.00,VWS V14.01,2013-01-26 02:58:00,
2013-01-25 22:03:00,55.1,53.4,30.22,NE,54,0.0,0.0,94,0.00,,---,0.00,VWS V14.01,2013-01-26 03:03:00,
2013-01-25 22:08:00,55.0,53.3,30.22,NE,54,0.0,0.0,94,0.00,,---,0.00,VWS V14.01,2013-01-26 03:08:00,
2013-01-25 22:13:00,54.8,53.1,30.22,NE,54,0.0,0.0,94,0.00,,---,0.00,VWS V14.01,2013-01-26 03:13:00,
2013-01-25 22:18:00,54.6,52.9,30.22,NE,54,0.0,0.0,94,0.00,,---,0.00,VWS V14.01,2013-01-26 03:18:00,
2013-01-25 22:23:00,54.6,52.9,30.21,NE,54,0.0,0.0,94,0.00,,---,0.00,VWS V14.01,2013-01-26 03:23:00,
2013-01-25 22:28:00,54.6,52.9,30.22,NE,54,0.0,0.0,94,0.00,,---,0.00,VWS V14.01,2013-01-26 03:28:00,
2013-01-25 22:33:00,54.6,53.2,30.22,NE,54,0.0,0.0,95,0.00,,---,0.00,VWS V14.01,2013-01-26 03:33:00,
2013-01-25 22:38:00,54.5,53.1,30.22,NE,54,0.0,0.0,95,0.00,,---,0.00,VWS V14.01,2013-01-26 03:38:00,
2013-01-25 22:43:00,54.4,53.0,30.22,NE,53,0.0,0.0,95,0.00,,---,0.00,VWS V14.01,2013-01-26 03:43:00,
2013-01-25 22:49:00,54.3,52.9,30.22,NE,54,0.0,0.0,95,0.00,,---,0.00,VWS V14.01,2013-01-26 03:49:00,
2013-01-25 22:54:00,54.2,52.8,30.22,NE,54,0.0,0.0,95,0.00,,---,0.00,VWS V14.01,2013-01-26 03:54:00,
2013-01-25 22:59:00,54.2,52.8,30.22,NE,53,0.0,0.0,95,0.00,,---,0.00,VWS V14.01,2013-01-26 03:59:00,
2013-01-25 23:04:00,54.1,52.7,30.22,NE,54,0.0,0.0,95,0.00,,---,0.00,VWS V14.01,2013-01-26 04:04:00,
2013-01-25 23:09:00,54.2,53.1,30.23,SE,136,2.0,5.0,96,0.00,,---,0.00,VWS V14.01,2013-01-26 04:09:00,
2013-01-25 23:14:00,55.0,53.9,30.23,SW,215,0.0,5.0,96,0.00,,---,0.00,VWS V14.01,2013-01-26 04:14:00,
2013-01-25 23:19:00,55.5,54.4,30.23,WSW,246,0.0,5.0,96,0.00,,---,0.00,VWS V14.01,2013-01-26 04:19:00,
2013-01-25 23:24:00,55.7,54.3,30.23,SSW,207,0.0,5.0,95,0.00,,---,0.00,VWS V14.01,2013-01-26 04:24:00,
2013-01-25 23:29:00,55.7,54.3,30.23,SSW,205,0.0,5.0,95,0.00,,---,0.00,VWS V14.01,2013-01-26 04:29:00,
2013-01-25 23:34:00,55.7,54.3,30.23,SSW,205,0.0,0.0,95,0.00,,---,0.00,VWS V14.01,2013-01-26 04:34:00,
2013-01-25 23:40:00,55.5,53.8,30.23,SSW,205,0.0,0.0,94,0.00,,---,0.00,VWS V14.01,2013-01-26 04:40:00,
2013-01-25 23:45:00,55.5,54.1,30.23,SSW,205,0.0,0.0,95,0.00,,---,0.00,VWS V14.01,2013-01-26 04:45:00,
2013-01-25 23:50:00,55.3,53.6,30.23,SSW,205,0.0,0.0,94,0.00,,---,0.00,VWS V14.01,2013-01-26 04:50:00,
2013-01-25 23:55:00,55.2,53.8,30.23,SSW,205,0.0,0.0,95,0.00,,---,0.00,VWS V14.01,2013-01-26 04:55:00,